Time;durP1;ratioP1;P1;durP2;ratioP2;P2;SDS_P1;SDS_P2;PMS_P1;PMS_P2;Temp;Humidity;BMP_temperature;BMP_pressure;BME280_temperature;BME280_humidity;BME280_pressure;Samples;Min_cycle;Max_cycle;Signal;HPM_P1;HPM_P2
2022/11/24 00:01:14;;;;;;;0.82;0.25;;;;;;;;;;6153282;23;20029;-75
2022/11/24 00:03:42;;;;;;;0.50;0.30;;;;;;;;;;6154592;23;20100;-75
2022/11/24 00:06:11;;;;;;;1.38;0.35;;;;;;;;;;6153392;23;20021;-75
2022/11/24 00:08:40;;;;;;;4.45;0.70;;;;;;;;;;6154198;23;20387;-75
2022/11/24 00:11:09;;;;;;;3.38;0.38;;;;;;;;;;6153930;23;20017;-73
2022/11/24 00:13:39;;;;;;;0.22;0.22;;;;;;;;;;6153826;23;20031;-73
2022/11/24 00:16:08;;;;;;;0.28;0.28;;;;;;;;;;6154765;23;20032;-74
2022/11/24 00:18:37;;;;;;;1.17;0.40;;;;;;;;;;6153115;23;20021;-73
2022/11/24 00:21:05;;;;;;;0.65;0.65;;;;;;;;;;6152635;23;20032;-73
2022/11/24 00:23:34;;;;;;;0.40;0.25;;;;;;;;;;6153163;23;20021;-73
2022/11/24 00:26:06;;;;;;;0.35;0.30;;;;;;;;;;6152940;23;20017;-73
2022/11/24 00:28:35;;;;;;;0.45;0.43;;;;;;;;;;6153167;23;20504;-74
2022/11/24 00:31:05;;;;;;;1.27;0.68;;;;;;;;;;6153336;23;20021;-74
2022/11/24 00:33:34;;;;;;;0.60;0.60;;;;;;;;;;6153733;23;20060;-75
2022/11/24 00:36:02;;;;;;;0.40;0.40;;;;;;;;;;6153697;23;20029;-73
2022/11/24 00:38:31;;;;;;;0.10;0.10;;;;;;;;;;6153322;23;20021;-72
2022/11/24 00:40:59;;;;;;;0.20;0.20;;;;;;;;;;6153618;23;20026;-72
2022/11/24 00:43:27;;;;;;;0.32;0.32;;;;;;;;;;6154109;23;20384;-72
2022/11/24 00:45:55;;;;;;;0.45;0.45;;;;;;;;;;6154439;23;20076;-73
2022/11/24 00:48:25;;;;;;;0.35;0.35;;;;;;;;;;6152234;23;20526;-72
2022/11/24 00:50:57;;;;;;;0.10;0.10;;;;;;;;;;6153952;23;20018;-73
2022/11/24 00:53:26;;;;;;;0.40;0.40;;;;;;;;;;6154039;23;20022;-73
2022/11/24 00:55:54;;;;;;;0.10;0.10;;;;;;;;;;6153983;23;20040;-73
2022/11/24 00:58:23;;;;;;;0.45;0.45;;;;;;;;;;6153341;23;20464;-74
2022/11/24 01:00:51;;;;;;;1.08;0.30;;;;;;;;;;6153923;23;20024;-74
2022/11/24 01:03:20;;;;;;;0.10;0.10;;;;;;;;;;6153165;23;20447;-74
2022/11/24 01:05:50;;;;;;;0.17;0.17;;;;;;;;;;6152959;23;20312;-74
2022/11/24 01:08:18;;;;;;;0.20;0.20;;;;;;;;;;6153344;23;20026;-74
2022/11/24 01:10:46;;;;;;;1.02;0.55;;;;;;;;;;6152435;23;20022;-74
2022/11/24 01:13:15;;;;;;;0.10;0.10;;;;;;;;;;6153755;23;20113;-73
2022/11/24 01:15:43;;;;;;;0.30;0.30;;;;;;;;;;6153422;23;20022;-74
2022/11/24 01:18:12;;;;;;;0.20;0.20;;;;;;;;;;6152808;23;20048;-74
2022/11/24 01:20:40;;;;;;;0.75;0.20;;;;;;;;;;6150909;23;20049;-74
2022/11/24 01:23:09;;;;;;;1.17;0.70;;;;;;;;;;6153497;23;20029;-74
2022/11/24 01:25:40;;;;;;;0.77;0.45;;;;;;;;;;6152312;23;20058;-74
2022/11/24 01:28:08;;;;;;;0.43;0.30;;;;;;;;;;6152770;23;20029;-74
2022/11/24 01:30:36;;;;;;;0.55;0.32;;;;;;;;;;6152909;23;20105;-74
2022/11/24 01:33:05;;;;;;;1.45;0.30;;;;;;;;;;6153499;23;20080;-74
2022/11/24 01:35:33;;;;;;;0.10;0.10;;;;;;;;;;6152902;23;20024;-75
2022/11/24 01:38:01;;;;;;;0.75;0.32;;;;;;;;;;6153617;23;20044;-72
2022/11/24 01:40:31;;;;;;;0.38;0.38;;;;;;;;;;6153524;23;20267;-76
2022/11/24 01:42:59;;;;;;;9.55;0.45;;;;;;;;;;6153270;23;20450;-74
2022/11/24 01:45:30;;;;;;;0.55;0.25;;;;;;;;;;6152757;23;20026;-75
2022/11/24 01:47:58;;;;;;;0.63;0.63;;;;;;;;;;6152984;23;20022;-76
2022/11/24 01:50:27;;;;;;;0.17;0.17;;;;;;;;;;6153099;23;20104;-75
2022/11/24 01:52:56;;;;;;;2.25;0.35;;;;;;;;;;6153215;23;20021;-75
2022/11/24 01:55:26;;;;;;;0.17;0.17;;;;;;;;;;6153515;23;20025;-74
2022/11/24 01:57:58;;;;;;;5.57;0.35;;;;;;;;;;6152965;23;20025;-73
2022/11/24 02:00:26;;;;;;;0.25;0.25;;;;;;;;;;6153957;23;20030;-74
2022/11/24 02:02:55;;;;;;;0.30;0.30;;;;;;;;;;6152721;23;20025;-73
2022/11/24 02:05:25;;;;;;;0.10;0.10;;;;;;;;;;6152114;23;20029;-74
2022/11/24 02:07:54;;;;;;;0.85;0.30;;;;;;;;;;6152225;23;20396;-75
2022/11/24 02:10:23;;;;;;;0.35;0.35;;;;;;;;;;6152966;23;20085;-75
2022/11/24 02:12:54;;;;;;;0.50;0.40;;;;;;;;;;6151553;23;20033;-74
2022/11/24 02:15:24;;;;;;;0.22;0.20;;;;;;;;;;6151943;23;20518;-73
2022/11/24 02:17:52;;;;;;;0.43;0.43;;;;;;;;;;6152801;23;20024;-73
2022/11/24 02:20:20;;;;;;;0.17;0.17;;;;;;;;;;6152011;23;20026;-73
2022/11/24 02:22:52;;;;;;;0.75;0.75;;;;;;;;;;6153367;23;20033;-73
2022/11/24 02:25:24;;;;;;;0.30;0.30;;;;;;;;;;6152340;23;20021;-73
2022/11/24 02:27:54;;;;;;;10.52;0.20;;;;;;;;;;6153027;23;20022;-73
2022/11/24 02:30:23;;;;;;;0.50;0.20;;;;;;;;;;6152917;23;20029;-73
2022/11/24 02:32:52;;;;;;;0.17;0.17;;;;;;;;;;6152680;23;20457;-73
2022/11/24 02:35:21;;;;;;;0.20;0.20;;;;;;;;;;6153060;23;20029;-73
2022/11/24 02:37:49;;;;;;;0.25;0.25;;;;;;;;;;6152107;23;20018;-73
2022/11/24 02:40:23;;;;;;;0.20;0.20;;;;;;;;;;6152524;23;20025;-73
2022/11/24 02:42:55;;;;;;;0.47;0.30;;;;;;;;;;6152114;23;20029;-72
2022/11/24 02:45:24;;;;;;;0.10;0.10;;;;;;;;;;6150844;23;20025;-73
2022/11/24 02:47:52;;;;;;;1.17;0.60;;;;;;;;;;6151756;23;20017;-73
2022/11/24 02:50:20;;;;;;;0.25;0.25;;;;;;;;;;6152685;23;20021;-73
2022/11/24 02:52:48;;;;;;;6.47;0.30;;;;;;;;;;6152174;23;20025;-73
2022/11/24 02:55:17;;;;;;;0.10;0.10;;;;;;;;;;6152603;23;20032;-74
2022/11/24 02:57:45;;;;;;;0.20;0.20;;;;;;;;;;6152236;23;20396;-73
2022/11/24 03:00:15;;;;;;;0.10;0.10;;;;;;;;;;6152001;23;20018;-73
2022/11/24 03:02:44;;;;;;;0.17;0.17;;;;;;;;;;6152072;23;20478;-73
2022/11/24 03:05:12;;;;;;;0.22;0.20;;;;;;;;;;6152271;23;20104;-73
2022/11/24 03:07:40;;;;;;;0.57;0.30;;;;;;;;;;6152095;23;20073;-73
2022/11/24 03:10:09;;;;;;;0.17;0.15;;;;;;;;;;6152478;23;20104;-73
2022/11/24 03:12:37;;;;;;;0.10;0.10;;;;;;;;;;6151869;23;20025;-73
2022/11/24 03:15:07;;;;;;;0.20;0.20;;;;;;;;;;6152189;23;20044;-73
2022/11/24 03:17:36;;;;;;;0.30;0.30;;;;;;;;;;6151673;23;20032;-73
2022/11/24 03:20:05;;;;;;;0.10;0.10;;;;;;;;;;6154506;23;20021;-74
2022/11/24 03:22:33;;;;;;;0.17;0.17;;;;;;;;;;6153147;23;20068;-74
2022/11/24 03:25:01;;;;;;;0.10;0.10;;;;;;;;;;6153988;23;20029;-74
2022/11/24 03:27:30;;;;;;;0.80;0.35;;;;;;;;;;6153725;23;20021;-74
2022/11/24 03:29:59;;;;;;;0.95;0.77;;;;;;;;;;6153984;23;20021;-74
2022/11/24 03:32:27;;;;;;;0.38;0.38;;;;;;;;;;6154222;23;20021;-74
2022/11/24 03:34:56;;;;;;;0.28;0.28;;;;;;;;;;6154096;23;20025;-73
2022/11/24 03:37:25;;;;;;;0.20;0.20;;;;;;;;;;6153012;23;20037;-73
2022/11/24 03:39:53;;;;;;;1.90;0.28;;;;;;;;;;6154665;23;20026;-73
2022/11/24 03:42:21;;;;;;;0.10;0.10;;;;;;;;;;6153278;23;20025;-74
2022/11/24 03:44:49;;;;;;;2.55;0.25;;;;;;;;;;6154761;23;20021;-74
2022/11/24 03:47:18;;;;;;;0.55;0.22;;;;;;;;;;6152490;23;20463;-74
2022/11/24 03:49:46;;;;;;;2.13;0.32;;;;;;;;;;6154323;23;20033;-74
2022/11/24 03:52:15;;;;;;;0.10;0.10;;;;;;;;;;6153305;23;20395;-74
2022/11/24 03:54:46;;;;;;;0.10;0.10;;;;;;;;;;6154556;23;20486;-73
2022/11/24 03:57:17;;;;;;;0.10;0.10;;;;;;;;;;6153665;23;20057;-74
2022/11/24 03:59:45;;;;;;;0.20;0.20;;;;;;;;;;6155232;23;20039;-74
2022/11/24 04:02:13;;;;;;;0.10;0.10;;;;;;;;;;6152813;23;20025;-74
2022/11/24 04:04:41;;;;;;;0.75;0.20;;;;;;;;;;6154668;23;20379;-74
2022/11/24 04:07:18;;;;;;;0.10;0.10;;;;;;;;;;6152042;23;20477;-74
2022/11/24 04:09:46;;;;;;;0.10;0.10;;;;;;;;;;6151493;23;20029;-74
2022/11/24 04:15:00;;;;;;;0.00;0.00;;;;;;;;;;6154463;23;20022;-73
2022/11/24 04:17:29;;;;;;;0.85;0.20;;;;;;;;;;6152674;23;20033;-74
2022/11/24 04:19:57;;;;;;;0.20;0.20;;;;;;;;;;6151616;23;20158;-73
2022/11/24 04:22:26;;;;;;;0.40;0.40;;;;;;;;;;6153636;23;20017;-74
2022/11/24 04:24:55;;;;;;;0.10;0.10;;;;;;;;;;6154195;23;20400;-74
2022/11/24 04:27:23;;;;;;;0.10;0.10;;;;;;;;;;6152086;23;20028;-74
2022/11/24 04:29:51;;;;;;;0.10;0.10;;;;;;;;;;6151795;23;20474;-73
2022/11/24 04:32:19;;;;;;;0.10;0.10;;;;;;;;;;6152084;23;20022;-74
2022/11/24 04:34:48;;;;;;;0.03;0.03;;;;;;;;;;6153797;23;20029;-74
2022/11/24 04:37:16;;;;;;;0.52;0.45;;;;;;;;;;6152338;23;20021;-73
2022/11/24 04:39:46;;;;;;;0.20;0.20;;;;;;;;;;6152088;23;20026;-73
2022/11/24 04:42:14;;;;;;;0.10;0.10;;;;;;;;;;6152321;23;20028;-74
2022/11/24 04:44:42;;;;;;;0.20;0.20;;;;;;;;;;6152840;23;20029;-73
2022/11/24 04:47:13;;;;;;;0.30;0.20;;;;;;;;;;6152680;23;20447;-73
2022/11/24 04:49:41;;;;;;;0.10;0.10;;;;;;;;;;6153618;23;20017;-74
2022/11/24 04:52:10;;;;;;;0.22;0.22;;;;;;;;;;6153878;23;20029;-74
2022/11/24 04:54:38;;;;;;;0.60;0.40;;;;;;;;;;6152852;23;20025;-74
2022/11/24 04:57:07;;;;;;;0.10;0.10;;;;;;;;;;6152139;23;20029;-74
2022/11/24 04:59:36;;;;;;;2.67;1.30;;;;;;;;;;6152258;23;20026;-73
2022/11/24 05:02:04;;;;;;;0.22;0.22;;;;;;;;;;6152563;23;20025;-73
2022/11/24 05:04:32;;;;;;;0.57;0.30;;;;;;;;;;6151814;23;20028;-73
2022/11/24 05:07:01;;;;;;;0.10;0.10;;;;;;;;;;6150728;23;20025;-73
2022/11/24 05:09:29;;;;;;;0.85;0.45;;;;;;;;;;6150266;23;20025;-73
2022/11/24 05:12:19;;;;;;;1.95;0.40;;;;;;;;;;6151783;23;20033;-74
2022/11/24 05:14:47;;;;;;;0.10;0.10;;;;;;;;;;6153105;23;20032;-73
2022/11/24 05:17:15;;;;;;;0.20;0.20;;;;;;;;;;6152850;23;20468;-73
2022/11/24 05:19:43;;;;;;;0.20;0.20;;;;;;;;;;6151921;23;20089;-74
2022/11/24 05:22:12;;;;;;;0.20;0.20;;;;;;;;;;6150806;23;20027;-74
2022/11/24 05:24:40;;;;;;;0.13;0.13;;;;;;;;;;6152622;23;20070;-74
2022/11/24 05:27:08;;;;;;;0.10;0.10;;;;;;;;;;6153920;23;20035;-74
2022/11/24 05:29:38;;;;;;;0.10;0.10;;;;;;;;;;6152276;23;20331;-73
2022/11/24 05:32:06;;;;;;;1.48;0.82;;;;;;;;;;6151926;23;20355;-74
2022/11/24 05:34:34;;;;;;;0.80;0.80;;;;;;;;;;6152524;23;20029;-73
2022/11/24 05:37:03;;;;;;;2.72;0.47;;;;;;;;;;6153344;23;20359;-74
2022/11/24 05:39:32;;;;;;;0.10;0.10;;;;;;;;;;6152111;23;20021;-74
2022/11/24 05:42:39;;;;;;;0.30;0.28;;;;;;;;;;6152740;23;20025;-74
2022/11/24 05:44:50;;;;;;;0.55;0.32;;;;;;;;;;6152530;23;20033;-74
2022/11/24 05:47:18;;;;;;;0.20;0.20;;;;;;;;;;6151055;23;20029;-73
2022/11/24 05:49:46;;;;;;;0.15;0.15;;;;;;;;;;6148494;23;20367;-73
2022/11/24 05:52:14;;;;;;;0.30;0.30;;;;;;;;;;6152682;23;20017;-74
2022/11/24 05:54:43;;;;;;;0.40;0.20;;;;;;;;;;6151719;23;20450;-74
2022/11/24 05:57:12;;;;;;;0.30;0.30;;;;;;;;;;6151793;23;20017;-74
2022/11/24 05:59:40;;;;;;;0.20;0.20;;;;;;;;;;6150872;23;20032;-74
2022/11/24 06:02:10;;;;;;;0.25;0.17;;;;;;;;;;6148573;23;20021;-74
2022/11/24 06:04:38;;;;;;;0.05;0.05;;;;;;;;;;6152608;23;20025;-74
2022/11/24 06:07:08;;;;;;;0.10;0.10;;;;;;;;;;6151587;23;20026;-74
2022/11/24 06:09:37;;;;;;;0.10;0.10;;;;;;;;;;6146236;23;20437;-73
2022/11/24 06:12:06;;;;;;;1.45;0.30;;;;;;;;;;6151011;23;20053;-74
2022/11/24 06:14:35;;;;;;;0.15;0.15;;;;;;;;;;6150170;23;20450;-73
2022/11/24 06:17:04;;;;;;;0.20;0.20;;;;;;;;;;6152228;23;20030;-73
2022/11/24 06:19:34;;;;;;;0.45;0.20;;;;;;;;;;6150751;23;20017;-74
2022/11/24 06:22:08;;;;;;;0.20;0.20;;;;;;;;;;6149132;23;20022;-73
2022/11/24 06:24:37;;;;;;;0.65;0.20;;;;;;;;;;6152398;23;20025;-73
2022/11/24 06:27:05;;;;;;;0.32;0.20;;;;;;;;;;6152712;23;20025;-73
2022/11/24 06:29:33;;;;;;;0.20;0.20;;;;;;;;;;6151709;23;20029;-73
2022/11/24 06:32:02;;;;;;;0.43;0.43;;;;;;;;;;6149752;23;20375;-73
2022/11/24 06:34:30;;;;;;;0.10;0.10;;;;;;;;;;6150133;23;20036;-73
2022/11/24 06:37:00;;;;;;;1.77;1.20;;;;;;;;;;6149650;23;20021;-73
2022/11/24 06:39:29;;;;;;;0.80;0.40;;;;;;;;;;6149572;23;20022;-73
2022/11/24 06:41:57;;;;;;;0.50;0.38;;;;;;;;;;6148953;23;20025;-73
2022/11/24 06:44:25;;;;;;;0.63;0.25;;;;;;;;;;6148108;23;20021;-73
2022/11/24 06:46:54;;;;;;;3.50;0.30;;;;;;;;;;6149611;23;20470;-73
2022/11/24 06:49:22;;;;;;;0.75;0.73;;;;;;;;;;6151225;23;20028;-73
2022/11/24 06:51:50;;;;;;;0.10;0.10;;;;;;;;;;6151116;23;20032;-73
2022/11/24 06:54:21;;;;;;;5.15;0.30;;;;;;;;;;6152322;23;20443;-74
2022/11/24 06:56:49;;;;;;;0.20;0.13;;;;;;;;;;6152373;23;20092;-74
2022/11/24 06:59:18;;;;;;;0.35;0.10;;;;;;;;;;6153348;23;20025;-74
2022/11/24 07:01:47;;;;;;;0.68;0.17;;;;;;;;;;6153673;23;20347;-74
2022/11/24 07:04:15;;;;;;;0.95;0.50;;;;;;;;;;6153392;23;20025;-74
2022/11/24 07:06:44;;;;;;;0.10;0.10;;;;;;;;;;6153644;23;20100;-74
2022/11/24 07:09:13;;;;;;;13.35;0.40;;;;;;;;;;6153220;23;20351;-74
2022/11/24 07:11:42;;;;;;;4.30;0.40;;;;;;;;;;6155366;23;20029;-75
2022/11/24 07:14:11;;;;;;;0.22;0.22;;;;;;;;;;6155008;23;20185;-74
2022/11/24 07:16:40;;;;;;;0.30;0.30;;;;;;;;;;6155625;23;20026;-74
2022/11/24 07:19:10;;;;;;;0.10;0.10;;;;;;;;;;6155028;23;20533;-74
2022/11/24 07:21:38;;;;;;;0.10;0.10;;;;;;;;;;6155333;23;20026;-74
2022/11/24 07:24:07;;;;;;;2.08;0.38;;;;;;;;;;6155567;23;20317;-74
2022/11/24 07:26:36;;;;;;;0.10;0.10;;;;;;;;;;6154966;23;20018;-74
2022/11/24 07:29:06;;;;;;;0.10;0.10;;;;;;;;;;6152976;23;20396;-73
2022/11/24 07:31:34;;;;;;;1.75;0.30;;;;;;;;;;6155288;23;20347;-74
2022/11/24 07:34:03;;;;;;;1.10;0.20;;;;;;;;;;6155131;23;20076;-74
2022/11/24 07:36:31;;;;;;;1.85;0.63;;;;;;;;;;6154290;23;20035;-73
2022/11/24 07:38:59;;;;;;;0.32;0.25;;;;;;;;;;6154096;23;20096;-74
2022/11/24 07:41:27;;;;;;;0.80;0.50;;;;;;;;;;6155207;23;20436;-74
2022/11/24 07:43:56;;;;;;;1.75;0.17;;;;;;;;;;6153670;23;20475;-74
2022/11/24 07:46:25;;;;;;;0.60;0.57;;;;;;;;;;6154411;23;20057;-74
2022/11/24 07:48:54;;;;;;;0.10;0.10;;;;;;;;;;6154312;23;20025;-74
2022/11/24 07:51:22;;;;;;;0.17;0.17;;;;;;;;;;6155442;23;20096;-74
2022/11/24 07:53:51;;;;;;;0.80;0.40;;;;;;;;;;6155224;23;20029;-74
2022/11/24 07:56:19;;;;;;;0.80;0.20;;;;;;;;;;6154003;23;20022;-74
2022/11/24 07:58:48;;;;;;;0.55;0.45;;;;;;;;;;6152416;23;20450;-74
2022/11/24 08:01:20;;;;;;;0.35;0.20;;;;;;;;;;6151836;23;20017;-74
2022/11/24 08:03:50;;;;;;;0.20;0.20;;;;;;;;;;6153528;23;20383;-73
2022/11/24 08:06:19;;;;;;;2.20;0.40;;;;;;;;;;6154584;23;20032;-74
2022/11/24 08:08:58;;;;;;;1.35;0.32;;;;;;;;;;6153790;23;20018;-74
2022/11/24 08:11:26;;;;;;;0.25;0.20;;;;;;;;;;6154987;23;20039;-74
2022/11/24 08:13:55;;;;;;;2.85;0.57;;;;;;;;;;6152755;23;20061;-73
2022/11/24 08:16:23;;;;;;;0.47;0.47;;;;;;;;;;6155078;23;20060;-74
2022/11/24 08:18:54;;;;;;;0.10;0.10;;;;;;;;;;6151236;23;20088;-74
2022/11/24 08:21:23;;;;;;;0.22;0.22;;;;;;;;;;6152112;23;20462;-74
2022/11/24 08:23:54;;;;;;;0.30;0.30;;;;;;;;;;6150791;23;20415;-73
2022/11/24 08:26:23;;;;;;;0.65;0.65;;;;;;;;;;6150244;23;20049;-74
2022/11/24 08:28:54;;;;;;;0.30;0.30;;;;;;;;;;6149807;23;20025;-74
2022/11/24 08:31:23;;;;;;;3.20;0.45;;;;;;;;;;6151615;23;20045;-73
2022/11/24 08:33:55;;;;;;;0.77;0.40;;;;;;;;;;6152217;23;20030;-74
2022/11/24 08:36:24;;;;;;;0.50;0.50;;;;;;;;;;6153592;23;20029;-74
2022/11/24 08:38:55;;;;;;;2.08;0.73;;;;;;;;;;6151460;23;20045;-74
2022/11/24 08:41:23;;;;;;;0.55;0.55;;;;;;;;;;6153809;23;20375;-73
2022/11/24 08:43:51;;;;;;;0.25;0.13;;;;;;;;;;6149569;23;20043;-73
2022/11/24 08:46:20;;;;;;;0.13;0.13;;;;;;;;;;6151332;23;20025;-73
2022/11/24 08:48:49;;;;;;;0.10;0.10;;;;;;;;;;6152668;23;20348;-73
2022/11/24 08:51:20;;;;;;;2.72;0.50;;;;;;;;;;6154525;23;20073;-74
2022/11/24 08:53:48;;;;;;;0.22;0.22;;;;;;;;;;6153357;23;20108;-72
2022/11/24 08:56:17;;;;;;;4.00;0.17;;;;;;;;;;6148386;23;20096;-73
2022/11/24 08:58:45;;;;;;;2.08;0.22;;;;;;;;;;6152287;23;20024;-74
2022/11/24 09:01:15;;;;;;;1.98;0.32;;;;;;;;;;6153870;23;20025;-73
2022/11/24 09:03:44;;;;;;;0.10;0.10;;;;;;;;;;6153839;23;20092;-73
2022/11/24 09:06:21;;;;;;;0.75;0.20;;;;;;;;;;6153204;23;20032;-73
2022/11/24 09:08:50;;;;;;;0.10;0.10;;;;;;;;;;6151957;23;20100;-73
2022/11/24 09:11:19;;;;;;;0.20;0.20;;;;;;;;;;6150419;23;20522;-72
2022/11/24 09:13:48;;;;;;;0.10;0.10;;;;;;;;;;6152991;23;20022;-73
2022/11/24 09:16:17;;;;;;;0.10;0.10;;;;;;;;;;6152736;23;20021;-73
2022/11/24 09:18:47;;;;;;;0.10;0.10;;;;;;;;;;6153422;23;20022;-73
2022/11/24 09:21:17;;;;;;;0.00;0.00;;;;;;;;;;6153756;23;20320;-73
2022/11/24 09:23:48;;;;;;;0.22;0.15;;;;;;;;;;6153855;23;20018;-73
2022/11/24 09:26:17;;;;;;;0.30;0.30;;;;;;;;;;6152426;23;20130;-72
2022/11/24 09:28:47;;;;;;;1.25;0.52;;;;;;;;;;6152315;23;20017;-73
2022/11/24 09:31:16;;;;;;;0.25;0.25;;;;;;;;;;6152826;23;20100;-73
2022/11/24 09:33:45;;;;;;;0.35;0.20;;;;;;;;;;6153076;23;20026;-72
2022/11/24 09:36:14;;;;;;;0.40;0.22;;;;;;;;;;6153502;23;20030;-74
2022/11/24 09:38:43;;;;;;;16.05;0.57;;;;;;;;;;6152369;23;20104;-73
2022/11/24 09:41:22;;;;;;;1.48;0.30;;;;;;;;;;6153471;23;20022;-73
2022/11/24 09:43:55;;;;;;;1.85;0.47;;;;;;;;;;6153901;23;20025;-73
2022/11/24 09:46:28;;;;;;;7.45;0.35;;;;;;;;;;6152692;23;20302;-73
2022/11/24 09:48:58;;;;;;;5.18;0.35;;;;;;;;;;6152837;23;20026;-73
2022/11/24 09:51:28;;;;;;;0.32;0.30;;;;;;;;;;6152510;23;20048;-73
2022/11/24 09:54:01;;;;;;;0.25;0.20;;;;;;;;;;6151148;23;20459;-73
2022/11/24 09:56:33;;;;;;;1.00;0.10;;;;;;;;;;6153466;23;20100;-74
2022/11/24 09:59:03;;;;;;;3.80;0.43;;;;;;;;;;6152147;23;20462;-74
2022/11/24 10:01:32;;;;;;;0.10;0.10;;;;;;;;;;6152295;23;20358;-74
2022/11/24 10:04:02;;;;;;;1.45;0.10;;;;;;;;;;6152477;23;20379;-74
2022/11/24 10:06:39;;;;;;;1.85;0.38;;;;;;;;;;6152525;23;20100;-72
2022/11/24 10:09:22;;;;;;;0.40;0.40;;;;;;;;;;6152497;23;20351;-73
2022/11/24 10:11:57;;;;;;;3.60;0.30;;;;;;;;;;6149301;23;20339;-73
2022/11/24 10:14:25;;;;;;;;;;;;;;;;;;6153570;23;20394;-72
2022/11/24 10:16:57;;;;;;;0.70;0.30;;;;;;;;;;6153470;23;20330;-73
2022/11/24 10:19:35;;;;;;;0.10;0.10;;;;;;;;;;6152106;23;20463;-73
2022/11/24 10:22:15;;;;;;;0.10;0.10;;;;;;;;;;6153131;23;20041;-72
2022/11/24 10:24:58;;;;;;;1.90;0.75;;;;;;;;;;6153314;23;20455;-73
2022/11/24 10:27:31;;;;;;;0.17;0.17;;;;;;;;;;6148724;23;20084;-73
2022/11/24 10:30:01;;;;;;;0.40;0.30;;;;;;;;;;6155040;23;20029;-72
2022/11/24 10:32:31;;;;;;;4.75;0.40;;;;;;;;;;6154198;23;20021;-72
2022/11/24 10:35:03;;;;;;;0.30;0.25;;;;;;;;;;6155544;23;20029;-73
2022/11/24 10:37:35;;;;;;;0.63;0.10;;;;;;;;;;6154060;23;20101;-73
2022/11/24 10:40:10;;;;;;;0.55;0.10;;;;;;;;;;6154099;23;20414;-74
2022/11/24 10:43:00;;;;;;;0.95;0.95;;;;;;;;;;6154705;23;20026;-73
2022/11/24 10:45:29;;;;;;;9.85;0.57;;;;;;;;;;6153631;23;20025;-73
2022/11/24 10:47:58;;;;;;;0.63;0.63;;;;;;;;;;6155056;23;20431;-73
2022/11/24 10:50:27;;;;;;;0.10;0.10;;;;;;;;;;6154657;23;20467;-73
2022/11/24 10:53:05;;;;;;;0.20;0.20;;;;;;;;;;6155594;23;20131;-72
2022/11/24 10:55:53;;;;;;;0.10;0.10;;;;;;;;;;6154489;23;20029;-73
2022/11/24 10:58:25;;;;;;;0.10;0.10;;;;;;;;;;6152403;23;20412;-72
2022/11/24 11:00:53;;;;;;;3.08;0.28;;;;;;;;;;6155297;23;20057;-74
2022/11/24 11:03:23;;;;;;;0.10;0.10;;;;;;;;;;6153421;23;20048;-73
2022/11/24 11:05:52;;;;;;;4.03;0.20;;;;;;;;;;6155397;23;20021;-73
2022/11/24 11:08:22;;;;;;;0.32;0.32;;;;;;;;;;6153058;23;20025;-72
2022/11/24 11:10:52;;;;;;;5.68;0.30;;;;;;;;;;6155366;23;20100;-74
2022/11/24 11:13:26;;;;;;;0.93;0.15;;;;;;;;;;6154406;23;20069;-74
2022/11/24 11:15:54;;;;;;;0.80;0.57;;;;;;;;;;6155248;23;20105;-74
2022/11/24 11:18:23;;;;;;;0.13;0.10;;;;;;;;;;6153076;23;20490;-74
2022/11/24 11:20:53;;;;;;;0.10;0.10;;;;;;;;;;6153043;23;20017;-74
2022/11/24 11:23:23;;;;;;;0.10;0.10;;;;;;;;;;6152976;23;20109;-72
2022/11/24 11:25:51;;;;;;;0.10;0.10;;;;;;;;;;6154370;23;20048;-73
2022/11/24 11:28:23;;;;;;;2.85;0.20;;;;;;;;;;6153282;23;20459;-73
2022/11/24 11:31:01;;;;;;;1.65;0.40;;;;;;;;;;6155143;23;20096;-74
2022/11/24 11:33:59;;;;;;;1.45;0.40;;;;;;;;;;6155343;23;20084;-73
2022/11/24 11:36:37;;;;;;;0.10;0.10;;;;;;;;;;6154535;23;20026;-74
2022/11/24 11:39:05;;;;;;;0.10;0.10;;;;;;;;;;6152760;23;20138;-73
2022/11/24 11:41:36;;;;;;;0.30;0.30;;;;;;;;;;6155303;23;20073;-74
2022/11/24 11:44:12;;;;;;;0.40;0.40;;;;;;;;;;6155098;23;20022;-74
2022/11/24 11:46:43;;;;;;;5.78;1.65;;;;;;;;;;6155210;23;20033;-73
2022/11/24 11:49:12;;;;;;;1.90;0.28;;;;;;;;;;6153386;23;20029;-72
2022/11/24 11:51:53;;;;;;;0.10;0.10;;;;;;;;;;6154139;23;20398;-73
2022/11/24 11:54:28;;;;;;;0.10;0.10;;;;;;;;;;6153951;23;20117;-73
2022/11/24 11:57:03;;;;;;;0.25;0.25;;;;;;;;;;6151917;23;20421;-73
2022/11/24 11:59:31;;;;;;;;;;;;;;;;;;6150789;23;20525;-73
2022/11/24 12:02:19;;;;;;;0.05;0.03;;;;;;;;;;6151690;23;20210;-73
2022/11/24 12:04:51;;;;;;;0.50;0.22;;;;;;;;;;6150981;23;20711;-72
2022/11/24 12:07:34;;;;;;;1.10;0.47;;;;;;;;;;6151039;23;20021;-73
2022/11/24 12:10:08;;;;;;;0.10;0.10;;;;;;;;;;6134070;23;20022;-73
2022/11/24 12:12:51;;;;;;;0.10;0.10;;;;;;;;;;6154358;23;20069;-73
2022/11/24 12:15:22;;;;;;;0.32;0.17;;;;;;;;;;6119834;23;20037;-73
2022/11/24 12:17:55;;;;;;;0.13;0.13;;;;;;;;;;6152093;23;20041;-73
2022/11/24 12:20:30;;;;;;;0.10;0.10;;;;;;;;;;6152321;23;20105;-73
2022/11/24 12:23:02;;;;;;;0.10;0.10;;;;;;;;;;6154804;23;20505;-74
2022/11/24 12:25:34;;;;;;;0.10;0.10;;;;;;;;;;6154431;23;20021;-73
2022/11/24 12:28:06;;;;;;;0.20;0.20;;;;;;;;;;6154014;23;20017;-72
2022/11/24 12:30:39;;;;;;;0.10;0.10;;;;;;;;;;6152637;23;20447;-74
2022/11/24 12:33:14;;;;;;;0.10;0.10;;;;;;;;;;6153091;23;20108;-74
2022/11/24 12:35:43;;;;;;;;;;;;;;;;;;6152746;23;20028;-73
2022/11/24 12:38:21;;;;;;;0.10;0.10;;;;;;;;;;6148600;23;19921;-73
2022/11/24 12:40:59;;;;;;;0.17;0.17;;;;;;;;;;6141495;23;20048;-73
2022/11/24 12:43:51;;;;;;;6.40;0.28;;;;;;;;;;6151245;23;20025;-73
2022/11/24 12:46:24;;;;;;;0.32;0.28;;;;;;;;;;6150405;23;20021;-72
2022/11/24 12:48:59;;;;;;;0.13;0.13;;;;;;;;;;6148339;23;20021;-72
2022/11/24 12:51:30;;;;;;;0.10;0.10;;;;;;;;;;6149523;23;20033;-73
2022/11/24 12:53:59;;;;;;;0.10;0.10;;;;;;;;;;6148571;23;20029;-73
2022/11/24 12:56:32;;;;;;;0.20;0.20;;;;;;;;;;6146938;23;20125;-72
2022/11/24 12:59:11;;;;;;;0.10;0.10;;;;;;;;;;6146141;23;20514;-73
2022/11/24 13:01:41;;;;;;;0.30;0.30;;;;;;;;;;6146280;23;20463;-74
2022/11/24 13:04:19;;;;;;;1.25;0.32;;;;;;;;;;6145578;23;20021;-73
2022/11/24 13:06:50;;;;;;;0.10;0.10;;;;;;;;;;6148013;23;20912;-73
2022/11/24 13:09:19;;;;;;;0.00;0.00;;;;;;;;;;6145564;23;20096;-73
2022/11/24 13:11:48;;;;;;;1.27;0.55;;;;;;;;;;6145210;23;20031;-73
2022/11/24 13:14:22;;;;;;;7.78;0.55;;;;;;;;;;6146402;23;20725;-73
2022/11/24 13:16:55;;;;;;;0.50;0.30;;;;;;;;;;6146733;23;20026;-73
2022/11/24 13:19:45;;;;;;;0.10;0.10;;;;;;;;;;6148085;23;20032;-73
2022/11/24 13:22:16;;;;;;;0.50;0.50;;;;;;;;;;6149499;23;20025;-73
2022/11/24 13:25:06;;;;;;;1.23;0.40;;;;;;;;;;5081791;28;20552;-72
2022/11/24 13:27:44;;;;;;;0.55;0.22;;;;;;;;;;5064859;28;20492;-72
2022/11/24 13:30:30;;;;;;;0.10;0.10;;;;;;;;;;5031190;27;20053;-72
2022/11/24 13:33:03;;;;;;;0.17;0.17;;;;;;;;;;5032078;28;20049;-72
2022/11/24 13:35:31;;;;;;;0.20;0.20;;;;;;;;;;5034525;28;20052;-72
2022/11/24 13:38:00;;;;;;;0.22;0.10;;;;;;;;;;5025855;28;20049;-71
2022/11/24 13:40:39;;;;;;;0.15;0.15;;;;;;;;;;5026983;28;20530;-71
2022/11/24 13:43:23;;;;;;;0.50;0.25;;;;;;;;;;5030829;28;20166;-71
2022/11/24 13:45:53;;;;;;;0.30;0.30;;;;;;;;;;5035203;28;20080;-73
2022/11/24 13:48:40;;;;;;;0.85;0.47;;;;;;;;;;5042447;28;20071;-72
2022/11/24 13:51:15;;;;;;;1.35;0.40;;;;;;;;;;5041763;28;20406;-73
2022/11/24 13:53:45;;;;;;;0.40;0.40;;;;;;;;;;5020690;28;20509;-73
2022/11/24 13:56:22;;;;;;;2.20;0.43;;;;;;;;;;5026366;28;20123;-73
2022/11/24 13:58:53;;;;;;;0.20;0.10;;;;;;;;;;5023481;28;20053;-73
2022/11/24 14:01:23;;;;;;;0.15;0.15;;;;;;;;;;5023587;28;20045;-74
2022/11/24 14:03:59;;;;;;;0.35;0.35;;;;;;;;;;5028093;28;20479;-73
2022/11/24 14:06:54;;;;;;;2.45;0.73;;;;;;;;;;5017505;28;20050;-73
2022/11/24 14:09:22;;;;;;;;;;;;;;;;;;5023078;28;20521;-73
2022/11/24 14:11:57;;;;;;;2.17;0.73;;;;;;;;;;5025730;28;20008;-74
2022/11/24 14:14:27;;;;;;;0.20;0.20;;;;;;;;;;5032218;28;20129;-74
2022/11/24 14:17:16;;;;;;;0.20;0.20;;;;;;;;;;5023445;28;20128;-74
2022/11/24 14:19:46;;;;;;;2.10;0.45;;;;;;;;;;5038362;28;20136;-73
2022/11/24 14:22:18;;;;;;;3.72;0.17;;;;;;;;;;5043127;28;20603;-73
2022/11/24 14:24:52;;;;;;;1.27;0.28;;;;;;;;;;5056516;28;20049;-73
2022/11/24 14:27:22;;;;;;;0.55;0.55;;;;;;;;;;5061786;28;20729;-73
2022/11/24 14:29:56;;;;;;;0.30;0.30;;;;;;;;;;5047198;28;20103;-72
2022/11/24 14:32:25;;;;;;;0.30;0.30;;;;;;;;;;5047795;28;20383;-74
2022/11/24 14:34:54;;;;;;;0.10;0.10;;;;;;;;;;5032612;28;20091;-73
2022/11/24 14:37:23;;;;;;;0.10;0.10;;;;;;;;;;5031813;28;20045;-73
2022/11/24 14:39:51;;;;;;;0.20;0.20;;;;;;;;;;5048081;28;20414;-74
2022/11/24 14:42:21;;;;;;;0.40;0.28;;;;;;;;;;5050070;28;20041;-74
2022/11/24 14:44:52;;;;;;;0.15;0.15;;;;;;;;;;5049684;28;20102;-73
2022/11/24 14:47:27;;;;;;;0.20;0.20;;;;;;;;;;5052036;28;20056;-74
2022/11/24 14:50:06;;;;;;;0.10;0.10;;;;;;;;;;5035773;28;20061;-74
2022/11/24 14:52:35;;;;;;;1.08;0.30;;;;;;;;;;5029337;28;20053;-74
2022/11/24 14:55:03;;;;;;;0.38;0.38;;;;;;;;;;5029323;28;20418;-73
2022/11/24 14:57:50;;;;;;;0.17;0.17;;;;;;;;;;5031692;28;20057;-74
2022/11/24 15:00:20;;;;;;;0.40;0.20;;;;;;;;;;5047718;28;20061;-74
2022/11/24 15:02:52;;;;;;;0.10;0.10;;;;;;;;;;5053328;28;20081;-74
2022/11/24 15:05:21;;;;;;;0.47;0.30;;;;;;;;;;5053044;28;20053;-74
2022/11/24 15:07:50;;;;;;;1.08;0.30;;;;;;;;;;5042438;28;20060;-74